Stations météo

réclame
Mon MeteoGroup
Heino aws, Pays-Bas (6278): Température de l'air & dewpoint: 17.02.2020 20:00:00 - 23.02.2020 20:00:00 (CET)Heino aws, Pays-Bas (6278): Température de l'air 5cm: 17.02.2020 20:00:00 - 23.02.2020 20:00:00 (CET)Heino aws, Pays-Bas (6278): Vitesse du vent & gusts: 17.02.2020 20:00:00 - 23.02.2020 20:00:00 (CET)Heino aws, Pays-Bas (6278): Direction du vent: 17.02.2020 20:00:00 - 23.02.2020 20:00:00 (CET)Heino aws, Pays-Bas (6278): Quantités de précipitations: 17.02.2020 20:00:00 - 23.02.2020 20:00:00 (CET)
Date & Time tt [°C] td [°C] tt 5cm [°C] ff [km/h] ff [knt] fx [km/h] fx [knt] dd rr [mm]
23.02.2020 20:00:00 6,4 2,6 5,4 23 12 - - W -
23.02.2020 19:00:00 6,3 3,6 5,8 22 12 47 25 W 0,0
23.02.2020 18:00:00 6,9 4,1 6,5 25 14 54 29 WNW 0,0
23.02.2020 17:00:00 8,1 5,0 7,8 29 16 72 39 WNW 0,0
23.02.2020 16:00:00 9,4 6,0 9,3 43 23 68 37 W 0,0
23.02.2020 15:00:00 11,1 8,0 10,7 43 23 79 43 W 1,4
23.02.2020 14:00:00 12,6 10,1 12,0 40 21 72 39 W 0,1
23.02.2020 13:00:00 11,7 10,5 11,2 43 23 79 43 WSW 0,2
23.02.2020 12:00:00 11,8 10,3 11,0 43 23 79 43 WSW 1,5
23.02.2020 11:00:00 9,1 8,7 7,8 18 10 40 21 SW 3,6
23.02.2020 10:00:00 6,8 6,6 6,9 11 6 18 10 SSE 2,9
23.02.2020 09:00:00 6,8 6,6 6,7 7 4 18 10 S 2,6
23.02.2020 08:00:00 6,6 6,6 6,4 7 4 14 8 S 2,3
23.02.2020 07:00:00 6,3 5,9 6,1 11 6 36 19 WSW 1,5
23.02.2020 06:00:00 7,2 5,8 6,8 22 12 36 19 WSW 1,4
23.02.2020 05:00:00 7,6 6,6 7,3 22 12 36 19 WSW 1,6
23.02.2020 04:00:00 7,4 6,4 7,0 11 6 40 21 WSW 0,7
23.02.2020 03:00:00 8,4 6,3 7,9 22 12 36 19 WSW 0,0
23.02.2020 02:00:00 7,8 6,1 7,2 18 10 40 21 SW 0,1
23.02.2020 01:00:00 8,1 4,7 7,4 25 14 43 23 WSW 0,0
23.02.2020 00:00:00 8,1 4,5 7,5 18 10 29 16 WSW 0,0
22.02.2020 23:00:00 8,8 6,9 8,2 18 10 32 18 WSW 0,0
22.02.2020 22:00:00 8,2 6,6 7,5 18 10 43 23 WSW 1,0
22.02.2020 21:00:00 9,0 7,8 8,6 22 12 40 21 W 0,5
22.02.2020 20:00:00 10,0 7,0 9,2 29 16 47 25 W 0,4
22.02.2020 19:00:00 9,8 8,6 9,0 25 14 43 23 WSW 2,3
22.02.2020 18:00:00 9,1 7,5 8,5 29 16 54 29 W 2,1
22.02.2020 17:00:00 9,8 8,6 8,5 29 16 58 31 W 2,8
22.02.2020 16:00:00 11,2 8,3 10,4 40 21 61 33 WSW 0,1
22.02.2020 15:00:00 10,8 7,9 10,7 29 16 58 31 SW 0,0
22.02.2020 14:00:00 10,0 7,1 9,6 32 18 61 33 SW 0,0
22.02.2020 13:00:00 9,3 6,6 9,2 40 21 65 35 SW 0,0
22.02.2020 12:00:00 9,0 5,7 8,7 36 19 65 35 WSW 0,0
22.02.2020 11:00:00 8,3 4,7 7,9 32 18 61 33 SW 0,0
22.02.2020 10:00:00 7,2 4,2 6,7 32 18 61 33 SW 0,4
22.02.2020 09:00:00 6,8 3,6 6,1 22 12 47 25 SW 0,8
22.02.2020 08:00:00 7,4 2,8 6,9 29 16 50 27 SW 0,0
22.02.2020 07:00:00 7,4 3,1 6,8 29 16 50 27 SW 0,0
22.02.2020 06:00:00 7,4 3,6 6,9 25 14 50 27 SSW 0,0
22.02.2020 05:00:00 8,0 3,8 7,5 25 14 47 25 SSW 0,0
22.02.2020 04:00:00 8,6 4,1 8,2 29 16 58 31 SW 0,0
22.02.2020 03:00:00 8,6 3,9 8,2 29 16 58 31 SW 0,0
22.02.2020 02:00:00 8,7 4,0 8,3 29 16 47 25 SW 0,0
22.02.2020 01:00:00 9,0 4,1 8,5 29 16 47 25 SW 0,0
22.02.2020 00:00:00 8,6 4,2 8,1 25 14 43 23 SW 0,0
21.02.2020 23:00:00 8,5 4,1 8,1 25 14 47 25 SW 0,0
21.02.2020 22:00:00 8,5 4,1 8,1 25 14 47 25 SW 0,0
21.02.2020 21:00:00 8,2 4,2 7,8 25 14 50 27 SW 0,0
21.02.2020 20:00:00 8,3 4,5 7,8 25 14 47 25 SW 0,0
21.02.2020 19:00:00 8,2 4,6 7,7 25 14 43 23 SW 0,0
21.02.2020 18:00:00 8,3 4,1 7,8 25 14 43 23 SW 0,0
21.02.2020 17:00:00 8,4 4,0 7,9 25 14 43 23 SW 0,0
21.02.2020 16:00:00 8,4 4,1 8,1 25 14 40 21 SW 0,0
21.02.2020 15:00:00 7,9 3,7 7,7 25 14 43 23 SW 0,0
21.02.2020 14:00:00 8,1 3,8 8,2 25 14 43 23 SW 0,0
21.02.2020 13:00:00 8,7 3,9 9,2 22 12 43 23 SW 0,0
21.02.2020 12:00:00 8,7 4,1 10,3 22 12 43 23 SW 0,0
21.02.2020 11:00:00 7,3 3,4 8,0 22 12 36 19 SW 0,0
21.02.2020 10:00:00 5,7 2,8 5,8 18 10 32 18 SW 0,0
21.02.2020 09:00:00 4,0 1,6 3,4 18 10 29 16 SW 0,0
21.02.2020 08:00:00 3,2 1,0 1,9 14 8 25 14 SW 0,0
21.02.2020 07:00:00 3,3 1,1 1,6 14 8 22 12 SW 0,0
21.02.2020 06:00:00 4,0 1,1 2,6 14 8 25 14 SW 0,0
21.02.2020 05:00:00 4,9 1,2 3,7 18 10 29 16 WSW 0,0
21.02.2020 04:00:00 5,3 1,3 4,7 22 12 36 19 WSW 0,0
21.02.2020 03:00:00 5,6 1,2 5,0 18 10 40 21 W 0,0
21.02.2020 02:00:00 5,1 1,4 4,4 22 12 40 21 W 0,0
21.02.2020 01:00:00 5,3 1,0 4,3 25 14 43 23 W 0,0
21.02.2020 00:00:00 5,4 1,5 4,2 22 12 40 21 W 0,0
20.02.2020 23:00:00 5,2 2,5 4,6 25 14 50 27 W 0,1
20.02.2020 22:00:00 5,5 3,7 5,1 25 14 47 25 W 0,2
20.02.2020 21:00:00 5,6 3,7 5,1 18 10 47 25 WNW 1,0
20.02.2020 20:00:00 6,2 4,8 5,8 29 16 61 33 WNW 3,9
20.02.2020 19:00:00 8,5 6,7 8,0 22 12 47 25 SSW 0,6
20.02.2020 18:00:00 9,2 5,6 8,5 22 12 43 23 SSW 0,0
20.02.2020 17:00:00 10,1 4,7 9,5 25 14 47 25 SSW 0,0
20.02.2020 16:00:00 10,2 4,8 9,8 25 14 50 27 SSW 0,0
20.02.2020 15:00:00 9,5 5,7 9,3 25 14 43 23 SSW 0,0
20.02.2020 14:00:00 10,3 5,8 10,4 25 14 47 25 SW 0,0
20.02.2020 13:00:00 10,4 5,7 11,0 32 18 50 27 SW 0,0
20.02.2020 12:00:00 9,4 5,5 9,3 22 12 40 21 SSW 0,0
20.02.2020 11:00:00 9,0 6,2 8,8 22 12 40 21 SSW 0,0
20.02.2020 10:00:00 8,3 6,8 8,0 18 10 36 19 SSW 0,0
20.02.2020 09:00:00 7,8 6,8 7,5 18 10 36 19 SSW 0,0
20.02.2020 08:00:00 7,5 6,9 7,3 14 8 29 16 SSW 0,1
20.02.2020 07:00:00 7,7 6,7 7,4 18 10 29 16 SW 0,0
20.02.2020 06:00:00 7,4 6,7 7,2 18 10 32 18 SSW 0,0
20.02.2020 05:00:00 7,3 6,5 7,0 18 10 25 14 SSW 0,3
20.02.2020 04:00:00 6,7 6,2 6,4 14 8 29 16 SSW 0,6
20.02.2020 03:00:00 6,2 5,5 6,0 14 8 29 16 SSW 0,1
20.02.2020 02:00:00 6,1 5,1 5,8 14 8 29 16 SSW 0,0
20.02.2020 01:00:00 5,8 4,2 5,5 14 8 29 16 SSW 0,0
20.02.2020 00:00:00 5,5 3,2 5,1 14 8 29 16 SSW 0,0
19.02.2020 23:00:00 5,6 2,2 5,1 14 8 25 14 SSW 0,0
19.02.2020 22:00:00 5,4 1,6 4,8 14 8 25 14 SSW 0,0
19.02.2020 21:00:00 4,9 1,3 4,2 11 6 25 14 SSW 0,0
19.02.2020 20:00:00 4,4 1,1 2,9 11 6 18 10 SSW 0,0
19.02.2020 19:00:00 4,5 0,8 2,6 11 6 22 12 SSW 0,0
19.02.2020 18:00:00 5,1 0,9 3,7 14 8 36 19 WSW 0,0
19.02.2020 17:00:00 6,5 1,6 6,1 18 10 40 21 WSW 0,0
19.02.2020 16:00:00 7,2 2,3 6,7 18 10 36 19 W 0,0
19.02.2020 15:00:00 7,5 1,9 8,0 22 12 47 25 W 0,0
19.02.2020 14:00:00 6,9 1,7 7,6 29 16 47 25 W 0,0
19.02.2020 13:00:00 6,7 0,8 6,7 32 18 50 27 W 0,0
19.02.2020 12:00:00 6,9 2,7 6,7 25 14 43 23 W 0,0
19.02.2020 11:00:00 6,5 2,8 6,5 22 12 43 23 W 0,0
19.02.2020 10:00:00 6,0 2,4 5,2 22 12 32 18 W 0,0
19.02.2020 09:00:00 4,9 2,2 4,1 18 10 25 14 W 0,0
19.02.2020 08:00:00 4,5 2,1 3,6 14 8 40 21 W 0,2
19.02.2020 07:00:00 5,0 2,1 4,2 22 12 40 21 W 0,0
19.02.2020 06:00:00 4,9 3,0 3,8 18 10 25 14 W 0,0
19.02.2020 05:00:00 5,2 3,8 4,5 14 8 25 14 W 0,7
19.02.2020 04:00:00 4,4 3,7 3,4 14 8 32 18 WSW 0,0
19.02.2020 03:00:00 4,7 3,6 4,4 18 10 29 16 SW 0,6
19.02.2020 02:00:00 4,9 3,9 4,7 14 8 47 25 SW 1,0
19.02.2020 01:00:00 6,4 5,2 6,1 32 18 54 29 SW 1,5
19.02.2020 00:00:00 7,2 4,4 6,7 22 12 40 21 SSW 0,0
18.02.2020 23:00:00 6,8 4,7 6,3 18 10 40 21 SSW 0,0
18.02.2020 22:00:00 6,7 4,9 6,3 22 12 47 25 SW 0,8
18.02.2020 21:00:00 8,1 3,7 7,4 25 14 47 25 SW 0,0
18.02.2020 20:00:00 8,4 3,3 7,7 29 16 43 23 SW 0,0
18.02.2020 19:00:00 8,3 2,8 7,6 25 14 47 25 SW 0,0
18.02.2020 18:00:00 8,1 2,7 7,2 25 14 43 23 SW 0,0
18.02.2020 17:00:00 8,4 2,3 7,8 25 14 43 23 SW 0,0
18.02.2020 16:00:00 8,5 2,5 8,3 25 14 54 29 WSW 0,0
18.02.2020 15:00:00 8,3 2,7 7,8 25 14 50 27 WSW 0,0
18.02.2020 14:00:00 8,5 3,9 8,1 29 16 50 27 WSW 0,0
18.02.2020 13:00:00 7,8 3,2 7,5 25 14 54 29 WSW 0,2
18.02.2020 12:00:00 8,4 3,5 8,5 29 16 47 25 SW 0,0
18.02.2020 11:00:00 7,6 3,6 - 29 16 47 25 WSW 0,0
18.02.2020 10:00:00 6,7 3,5 6,8 25 14 43 23 SW 0,0
18.02.2020 09:00:00 5,4 2,7 4,9 18 10 32 18 SW 0,0
18.02.2020 08:00:00 4,9 1,6 3,7 18 10 36 19 SW 0,0
18.02.2020 07:00:00 5,6 1,1 - 22 12 40 21 WSW 0,0
18.02.2020 06:00:00 6,1 1,9 - 25 14 47 25 WSW 0,0
18.02.2020 05:00:00 6,2 2,5 4,6 22 12 36 19 WSW 0,0
18.02.2020 04:00:00 6,5 2,8 - 25 14 43 23 W 0,0
18.02.2020 03:00:00 7,3 5,0 6,8 25 14 36 19 SW 0,0
18.02.2020 02:00:00 7,1 5,3 6,4 22 12 32 18 SW 0,0
18.02.2020 01:00:00 6,9 5,5 5,9 18 10 32 18 SW 0,0
18.02.2020 00:00:00 6,9 5,5 6,1 18 10 36 19 SW 0,1
17.02.2020 23:00:00 6,5 5,0 5,7 18 10 50 27 SW 0,8
17.02.2020 22:00:00 7,1 5,2 6,3 18 10 32 18 SW 0,0
17.02.2020 21:00:00 7,1 5,1 6,6 22 12 36 19 SW 0,0
17.02.2020 20:00:00 7,4 4,2 6,9 22 12 43 23 SW 0,0

tt = Température de l'air
td = dewpoint
tt 5cm = Température de l'air 5cm
ff = Vitesse du vent
fx = gusts
dd = Direction du vent
rr = Quantités de précipitations

stations d'obs. à proximité